Terminal Aerodrome Forecast
Issued by NWS

Home | Current Version | Previous Version | Text Only | Print | Product List | Glossary On
Versions: 1 2 3 4 5 6 7 8 9 10 11 12 13 14
470
FTUS46 KMFR 172344
TAFOTH
TAF
KOTH 172344Z 1800/1824 19018G30KT P6SM OVC050
     FM180100 17020G30KT 4SM RA BR FEW015 OVC025
     FM181200 18020G30KT P6SM -SHRA FEW010 OVC025
     FM181900 20015G22KT P6SM -SHRA FEW010 OVC015=

USA.gov is the U.S. government's official web portal to all federal, state and local government web resources and services.